sensor_id;sensor_type;location;lat;lon;timestamp;P1;durP1;ratioP1;P2;durP2;ratioP2
72373;SDS011;60349;64.132;-21.820;2022-12-11T00:01:23;0.85;;;0.00;;
72373;SDS011;60349;64.132;-21.820;2022-12-11T00:03:49;2.58;;;0.00;;
72373;SDS011;60349;64.132;-21.820;2022-12-11T00:06:17;1.85;;;0.00;;
72373;SDS011;60349;64.132;-21.820;2022-12-11T00:08:43;1.27;;;0.20;;
72373;SDS011;60349;64.132;-21.820;2022-12-11T00:11:13;0.28;;;0.00;;
72373;SDS011;60349;64.132;-21.820;2022-12-11T00:13:40;3.40;;;0.03;;
72373;SDS011;60349;64.132;-21.820;2022-12-11T00:16:06;3.53;;;0.10;;
72373;SDS011;60349;64.132;-21.820;2022-12-11T00:18:33;0.88;;;0.00;;
72373;SDS011;60349;64.132;-21.820;2022-12-11T00:21:05;2.33;;;0.32;;
72373;SDS011;60349;64.132;-21.820;2022-12-11T00:23:33;1.77;;;0.08;;
72373;SDS011;60349;64.132;-21.820;2022-12-11T00:25:59;1.02;;;0.15;;
72373;SDS011;60349;64.132;-21.820;2022-12-11T00:28:25;1.48;;;0.00;;
72373;SDS011;60349;64.132;-21.820;2022-12-11T00:30:51;3.38;;;0.05;;
72373;SDS011;60349;64.132;-21.820;2022-12-11T00:33:17;1.25;;;0.00;;
72373;SDS011;60349;64.132;-21.820;2022-12-11T00:35:44;1.15;;;0.00;;
72373;SDS011;60349;64.132;-21.820;2022-12-11T00:38:15;0.50;;;0.00;;
72373;SDS011;60349;64.132;-21.820;2022-12-11T00:40:41;1.67;;;0.00;;
72373;SDS011;60349;64.132;-21.820;2022-12-11T00:43:08;3.55;;;0.10;;
72373;SDS011;60349;64.132;-21.820;2022-12-11T00:45:35;2.67;;;0.10;;
72373;SDS011;60349;64.132;-21.820;2022-12-11T00:48:01;2.47;;;0.10;;
72373;SDS011;60349;64.132;-21.820;2022-12-11T00:50:27;1.05;;;0.00;;
72373;SDS011;60349;64.132;-21.820;2022-12-11T00:52:53;1.60;;;0.00;;
72373;SDS011;60349;64.132;-21.820;2022-12-11T00:55:19;2.47;;;0.00;;
72373;SDS011;60349;64.132;-21.820;2022-12-11T00:57:45;2.00;;;0.00;;
72373;SDS011;60349;64.132;-21.820;2022-12-11T01:00:12;1.77;;;0.03;;
72373;SDS011;60349;64.132;-21.820;2022-12-11T01:02:38;0.38;;;0.00;;
72373;SDS011;60349;64.132;-21.820;2022-12-11T01:05:04;1.92;;;0.00;;
72373;SDS011;60349;64.132;-21.820;2022-12-11T01:07:30;0.80;;;0.00;;
72373;SDS011;60349;64.132;-21.820;2022-12-11T01:09:56;0.52;;;0.00;;
72373;SDS011;60349;64.132;-21.820;2022-12-11T01:12:41;0.40;;;0.00;;
72373;SDS011;60349;64.132;-21.820;2022-12-11T01:15:07;2.35;;;0.00;;
72373;SDS011;60349;64.132;-21.820;2022-12-11T01:17:35;0.68;;;0.00;;
72373;SDS011;60349;64.132;-21.820;2022-12-11T01:20:01;1.13;;;0.00;;
72373;SDS011;60349;64.132;-21.820;2022-12-11T01:22:28;2.30;;;0.00;;
72373;SDS011;60349;64.132;-21.820;2022-12-11T01:24:54;0.20;;;0.00;;
72373;SDS011;60349;64.132;-21.820;2022-12-11T01:27:20;0.88;;;0.00;;
72373;SDS011;60349;64.132;-21.820;2022-12-11T01:29:46;0.30;;;0.00;;
72373;SDS011;60349;64.132;-21.820;2022-12-11T01:32:13;1.17;;;0.00;;
72373;SDS011;60349;64.132;-21.820;2022-12-11T01:34:39;1.48;;;0.00;;
72373;SDS011;60349;64.132;-21.820;2022-12-11T01:37:06;1.65;;;0.00;;
72373;SDS011;60349;64.132;-21.820;2022-12-11T01:39:32;0.75;;;0.00;;
72373;SDS011;60349;64.132;-21.820;2022-12-11T01:41:58;1.48;;;0.00;;
72373;SDS011;60349;64.132;-21.820;2022-12-11T01:46:51;2.00;;;0.00;;
72373;SDS011;60349;64.132;-21.820;2022-12-11T01:49:17;1.67;;;0.00;;
72373;SDS011;60349;64.132;-21.820;2022-12-11T01:51:47;0.88;;;0.00;;
72373;SDS011;60349;64.132;-21.820;2022-12-11T01:54:14;0.55;;;0.00;;
72373;SDS011;60349;64.132;-21.820;2022-12-11T01:56:42;0.60;;;0.00;;
72373;SDS011;60349;64.132;-21.820;2022-12-11T01:59:09;0.73;;;0.00;;
72373;SDS011;60349;64.132;-21.820;2022-12-11T02:01:40;0.60;;;0.08;;
72373;SDS011;60349;64.132;-21.820;2022-12-11T02:04:08;0.13;;;0.00;;
72373;SDS011;60349;64.132;-21.820;2022-12-11T02:06:36;0.40;;;0.00;;
72373;SDS011;60349;64.132;-21.820;2022-12-11T02:09:06;0.20;;;0.00;;
72373;SDS011;60349;64.132;-21.820;2022-12-11T02:11:51;0.17;;;0.00;;
72373;SDS011;60349;64.132;-21.820;2022-12-11T02:16:51;0.10;;;0.00;;
72373;SDS011;60349;64.132;-21.820;2022-12-11T02:19:27;0.20;;;0.00;;
72373;SDS011;60349;64.132;-21.820;2022-12-11T02:21:56;1.45;;;0.00;;
72373;SDS011;60349;64.132;-21.820;2022-12-11T02:29:35;0.00;;;0.00;;
72373;SDS011;60349;64.132;-21.820;2022-12-11T02:37:30;0.00;;;0.00;;
72373;SDS011;60349;64.132;-21.820;2022-12-11T02:39:57;0.75;;;0.00;;
72373;SDS011;60349;64.132;-21.820;2022-12-11T02:42:24;0.30;;;0.00;;
72373;SDS011;60349;64.132;-21.820;2022-12-11T02:44:51;0.17;;;0.00;;
72373;SDS011;60349;64.132;-21.820;2022-12-11T02:47:19;0.22;;;0.00;;
72373;SDS011;60349;64.132;-21.820;2022-12-11T02:49:46;0.20;;;0.10;;
72373;SDS011;60349;64.132;-21.820;2022-12-11T02:52:15;0.13;;;0.00;;
72373;SDS011;60349;64.132;-21.820;2022-12-11T02:54:42;2.58;;;0.00;;
72373;SDS011;60349;64.132;-21.820;2022-12-11T02:57:16;1.08;;;0.00;;
72373;SDS011;60349;64.132;-21.820;2022-12-11T02:59:44;0.10;;;0.00;;
72373;SDS011;60349;64.132;-21.820;2022-12-11T03:02:14;0.10;;;0.00;;
72373;SDS011;60349;64.132;-21.820;2022-12-11T03:04:40;0.20;;;0.00;;
72373;SDS011;60349;64.132;-21.820;2022-12-11T03:07:08;0.10;;;0.00;;
72373;SDS011;60349;64.132;-21.820;2022-12-11T03:09:41;0.93;;;0.00;;
72373;SDS011;60349;64.132;-21.820;2022-12-11T03:12:08;0.65;;;0.00;;
72373;SDS011;60349;64.132;-21.820;2022-12-11T03:14:36;0.20;;;0.00;;
72373;SDS011;60349;64.132;-21.820;2022-12-11T03:17:24;0.43;;;0.00;;
72373;SDS011;60349;64.132;-21.820;2022-12-11T03:22:16;4.88;;;1.58;;
72373;SDS011;60349;64.132;-21.820;2022-12-11T03:24:50;10.38;;;4.60;;
72373;SDS011;60349;64.132;-21.820;2022-12-11T03:27:18;9.00;;;3.60;;
72373;SDS011;60349;64.132;-21.820;2022-12-11T03:30:11;7.90;;;2.35;;
72373;SDS011;60349;64.132;-21.820;2022-12-11T03:32:40;10.32;;;2.58;;
72373;SDS011;60349;64.132;-21.820;2022-12-11T03:37:35;5.15;;;1.15;;
72373;SDS011;60349;64.132;-21.820;2022-12-11T03:40:03;4.60;;;1.20;;
72373;SDS011;60349;64.132;-21.820;2022-12-11T03:42:31;5.85;;;1.10;;
72373;SDS011;60349;64.132;-21.820;2022-12-11T03:44:58;5.78;;;1.42;;
72373;SDS011;60349;64.132;-21.820;2022-12-11T03:47:24;4.90;;;0.60;;
72373;SDS011;60349;64.132;-21.820;2022-12-11T03:49:51;5.43;;;0.80;;
72373;SDS011;60349;64.132;-21.820;2022-12-11T03:52:18;3.38;;;0.38;;
72373;SDS011;60349;64.132;-21.820;2022-12-11T03:54:45;3.67;;;0.55;;
72373;SDS011;60349;64.132;-21.820;2022-12-11T03:57:13;6.43;;;0.70;;
72373;SDS011;60349;64.132;-21.820;2022-12-11T03:59:40;2.72;;;0.30;;
72373;SDS011;60349;64.132;-21.820;2022-12-11T04:02:06;3.80;;;0.50;;
72373;SDS011;60349;64.132;-21.820;2022-12-11T04:04:35;4.00;;;0.60;;
72373;SDS011;60349;64.132;-21.820;2022-12-11T04:07:01;2.95;;;0.30;;
72373;SDS011;60349;64.132;-21.820;2022-12-11T04:09:27;2.55;;;0.20;;
72373;SDS011;60349;64.132;-21.820;2022-12-11T04:11:53;2.28;;;0.20;;
72373;SDS011;60349;64.132;-21.820;2022-12-11T04:14:19;2.25;;;0.20;;
72373;SDS011;60349;64.132;-21.820;2022-12-11T04:17:04;1.33;;;0.20;;
72373;SDS011;60349;64.132;-21.820;2022-12-11T04:19:30;3.85;;;0.20;;
72373;SDS011;60349;64.132;-21.820;2022-12-11T04:22:16;1.10;;;0.10;;
72373;SDS011;60349;64.132;-21.820;2022-12-11T04:25:01;3.17;;;0.20;;
72373;SDS011;60349;64.132;-21.820;2022-12-11T04:27:27;2.15;;;0.10;;
72373;SDS011;60349;64.132;-21.820;2022-12-11T04:30:14;2.70;;;0.20;;
72373;SDS011;60349;64.132;-21.820;2022-12-11T04:32:40;0.90;;;0.10;;
72373;SDS011;60349;64.132;-21.820;2022-12-11T04:35:07;3.45;;;0.10;;
72373;SDS011;60349;64.132;-21.820;2022-12-11T04:37:33;0.90;;;0.20;;
72373;SDS011;60349;64.132;-21.820;2022-12-11T04:39:59;0.70;;;0.00;;
72373;SDS011;60349;64.132;-21.820;2022-12-11T04:42:26;1.23;;;0.10;;
72373;SDS011;60349;64.132;-21.820;2022-12-11T04:44:52;1.60;;;0.10;;
72373;SDS011;60349;64.132;-21.820;2022-12-11T04:47:18;1.42;;;0.00;;
72373;SDS011;60349;64.132;-21.820;2022-12-11T04:49:44;1.40;;;0.10;;
72373;SDS011;60349;64.132;-21.820;2022-12-11T04:52:10;1.45;;;0.00;;
72373;SDS011;60349;64.132;-21.820;2022-12-11T04:54:36;1.70;;;0.10;;
72373;SDS011;60349;64.132;-21.820;2022-12-11T04:57:02;0.38;;;0.00;;
72373;SDS011;60349;64.132;-21.820;2022-12-11T04:59:28;4.03;;;0.00;;
72373;SDS011;60349;64.132;-21.820;2022-12-11T05:01:56;0.52;;;0.00;;
72373;SDS011;60349;64.132;-21.820;2022-12-11T05:04:22;3.83;;;0.00;;
72373;SDS011;60349;64.132;-21.820;2022-12-11T05:06:49;0.45;;;0.00;;
72373;SDS011;60349;64.132;-21.820;2022-12-11T05:09:15;0.40;;;0.00;;
72373;SDS011;60349;64.132;-21.820;2022-12-11T05:11:42;2.38;;;0.00;;
72373;SDS011;60349;64.132;-21.820;2022-12-11T05:14:08;0.95;;;0.00;;
72373;SDS011;60349;64.132;-21.820;2022-12-11T05:16:34;1.48;;;0.00;;
72373;SDS011;60349;64.132;-21.820;2022-12-11T05:19:00;0.20;;;0.00;;
72373;SDS011;60349;64.132;-21.820;2022-12-11T05:21:26;0.88;;;0.00;;
72373;SDS011;60349;64.132;-21.820;2022-12-11T05:23:53;0.28;;;0.00;;
72373;SDS011;60349;64.132;-21.820;2022-12-11T05:26:19;0.60;;;0.00;;
72373;SDS011;60349;64.132;-21.820;2022-12-11T05:28:45;0.30;;;0.00;;
72373;SDS011;60349;64.132;-21.820;2022-12-11T05:33:37;0.22;;;0.00;;
72373;SDS011;60349;64.132;-21.820;2022-12-11T05:36:04;0.40;;;0.00;;
72373;SDS011;60349;64.132;-21.820;2022-12-11T05:38:31;0.30;;;0.00;;
72373;SDS011;60349;64.132;-21.820;2022-12-11T05:40:58;0.38;;;0.00;;
72373;SDS011;60349;64.132;-21.820;2022-12-11T05:43:25;0.40;;;0.00;;
72373;SDS011;60349;64.132;-21.820;2022-12-11T05:45:51;0.57;;;0.00;;
72373;SDS011;60349;64.132;-21.820;2022-12-11T05:48:18;0.70;;;0.00;;
72373;SDS011;60349;64.132;-21.820;2022-12-11T05:50:44;0.35;;;0.00;;
72373;SDS011;60349;64.132;-21.820;2022-12-11T05:53:10;0.30;;;0.00;;
72373;SDS011;60349;64.132;-21.820;2022-12-11T05:55:36;0.20;;;0.00;;
72373;SDS011;60349;64.132;-21.820;2022-12-11T05:58:02;0.20;;;0.00;;
72373;SDS011;60349;64.132;-21.820;2022-12-11T06:00:28;0.45;;;0.00;;
72373;SDS011;60349;64.132;-21.820;2022-12-11T06:02:54;1.08;;;0.08;;
72373;SDS011;60349;64.132;-21.820;2022-12-11T06:05:20;0.65;;;0.00;;
72373;SDS011;60349;64.132;-21.820;2022-12-11T06:07:46;1.10;;;0.00;;
72373;SDS011;60349;64.132;-21.820;2022-12-11T06:10:13;0.30;;;0.00;;
72373;SDS011;60349;64.132;-21.820;2022-12-11T06:12:39;0.30;;;0.00;;
72373;SDS011;60349;64.132;-21.820;2022-12-11T06:15:05;0.28;;;0.00;;
72373;SDS011;60349;64.132;-21.820;2022-12-11T06:17:32;1.15;;;0.00;;
72373;SDS011;60349;64.132;-21.820;2022-12-11T06:19:58;0.13;;;0.00;;
72373;SDS011;60349;64.132;-21.820;2022-12-11T06:22:24;0.60;;;0.00;;
72373;SDS011;60349;64.132;-21.820;2022-12-11T06:24:50;1.65;;;0.00;;
72373;SDS011;60349;64.132;-21.820;2022-12-11T06:27:16;0.70;;;0.00;;
72373;SDS011;60349;64.132;-21.820;2022-12-11T06:29:43;0.20;;;0.00;;
72373;SDS011;60349;64.132;-21.820;2022-12-11T06:32:09;0.20;;;0.00;;
72373;SDS011;60349;64.132;-21.820;2022-12-11T06:34:35;1.00;;;0.00;;
72373;SDS011;60349;64.132;-21.820;2022-12-11T06:37:01;0.40;;;0.00;;
72373;SDS011;60349;64.132;-21.820;2022-12-11T06:39:27;0.50;;;0.00;;
72373;SDS011;60349;64.132;-21.820;2022-12-11T06:41:53;0.63;;;0.00;;
72373;SDS011;60349;64.132;-21.820;2022-12-11T06:44:19;0.20;;;0.00;;
72373;SDS011;60349;64.132;-21.820;2022-12-11T06:46:46;0.82;;;0.00;;
72373;SDS011;60349;64.132;-21.820;2022-12-11T06:49:12;1.08;;;0.00;;
72373;SDS011;60349;64.132;-21.820;2022-12-11T06:51:38;0.25;;;0.00;;
72373;SDS011;60349;64.132;-21.820;2022-12-11T06:54:04;0.38;;;0.00;;
72373;SDS011;60349;64.132;-21.820;2022-12-11T06:56:33;1.63;;;0.28;;
72373;SDS011;60349;64.132;-21.820;2022-12-11T06:58:59;0.10;;;0.00;;
72373;SDS011;60349;64.132;-21.820;2022-12-11T07:01:26;0.30;;;0.00;;
72373;SDS011;60349;64.132;-21.820;2022-12-11T07:03:53;1.17;;;0.00;;
72373;SDS011;60349;64.132;-21.820;2022-12-11T07:06:19;0.57;;;0.00;;
72373;SDS011;60349;64.132;-21.820;2022-12-11T07:08:45;0.40;;;0.00;;
72373;SDS011;60349;64.132;-21.820;2022-12-11T07:11:13;0.20;;;0.00;;
72373;SDS011;60349;64.132;-21.820;2022-12-11T07:13:39;1.27;;;0.00;;
72373;SDS011;60349;64.132;-21.820;2022-12-11T07:16:08;1.48;;;0.00;;
72373;SDS011;60349;64.132;-21.820;2022-12-11T07:18:38;0.22;;;0.00;;
72373;SDS011;60349;64.132;-21.820;2022-12-11T07:21:05;1.00;;;0.00;;
72373;SDS011;60349;64.132;-21.820;2022-12-11T07:23:32;0.95;;;0.00;;
72373;SDS011;60349;64.132;-21.820;2022-12-11T07:25:58;0.90;;;0.00;;
72373;SDS011;60349;64.132;-21.820;2022-12-11T07:28:28;0.25;;;0.00;;
72373;SDS011;60349;64.132;-21.820;2022-12-11T07:30:54;0.22;;;0.00;;
72373;SDS011;60349;64.132;-21.820;2022-12-11T07:33:20;0.20;;;0.00;;
72373;SDS011;60349;64.132;-21.820;2022-12-11T07:35:46;0.50;;;0.00;;
72373;SDS011;60349;64.132;-21.820;2022-12-11T07:38:12;0.32;;;0.00;;
72373;SDS011;60349;64.132;-21.820;2022-12-11T07:40:38;0.15;;;0.00;;
72373;SDS011;60349;64.132;-21.820;2022-12-11T07:43:05;0.50;;;0.00;;
72373;SDS011;60349;64.132;-21.820;2022-12-11T07:45:31;0.65;;;0.00;;
72373;SDS011;60349;64.132;-21.820;2022-12-11T07:47:57;0.30;;;0.00;;
72373;SDS011;60349;64.132;-21.820;2022-12-11T07:50:23;0.22;;;0.00;;
72373;SDS011;60349;64.132;-21.820;2022-12-11T07:52:49;1.75;;;0.00;;
72373;SDS011;60349;64.132;-21.820;2022-12-11T07:55:16;0.20;;;0.00;;
72373;SDS011;60349;64.132;-21.820;2022-12-11T07:57:42;0.20;;;0.00;;
72373;SDS011;60349;64.132;-21.820;2022-12-11T08:00:08;0.25;;;0.00;;
72373;SDS011;60349;64.132;-21.820;2022-12-11T08:02:36;0.38;;;0.00;;
72373;SDS011;60349;64.132;-21.820;2022-12-11T08:05:02;1.40;;;0.00;;
72373;SDS011;60349;64.132;-21.820;2022-12-11T08:07:28;0.63;;;0.00;;
72373;SDS011;60349;64.132;-21.820;2022-12-11T08:09:54;0.40;;;0.00;;
72373;SDS011;60349;64.132;-21.820;2022-12-11T08:12:20;0.95;;;0.00;;
72373;SDS011;60349;64.132;-21.820;2022-12-11T08:14:46;0.28;;;0.00;;
72373;SDS011;60349;64.132;-21.820;2022-12-11T08:17:12;0.32;;;0.00;;
72373;SDS011;60349;64.132;-21.820;2022-12-11T08:19:39;1.02;;;0.00;;
72373;SDS011;60349;64.132;-21.820;2022-12-11T08:22:05;0.73;;;0.00;;
72373;SDS011;60349;64.132;-21.820;2022-12-11T08:24:31;0.10;;;0.00;;
72373;SDS011;60349;64.132;-21.820;2022-12-11T08:26:57;0.20;;;0.00;;
72373;SDS011;60349;64.132;-21.820;2022-12-11T08:29:23;0.80;;;0.00;;
72373;SDS011;60349;64.132;-21.820;2022-12-11T08:31:49;2.33;;;0.00;;
72373;SDS011;60349;64.132;-21.820;2022-12-11T08:34:16;0.10;;;0.00;;
72373;SDS011;60349;64.132;-21.820;2022-12-11T08:36:42;0.10;;;0.00;;
72373;SDS011;60349;64.132;-21.820;2022-12-11T08:39:08;0.55;;;0.05;;
72373;SDS011;60349;64.132;-21.820;2022-12-11T08:41:34;0.50;;;0.00;;
72373;SDS011;60349;64.132;-21.820;2022-12-11T08:44:00;0.15;;;0.00;;
72373;SDS011;60349;64.132;-21.820;2022-12-11T08:46:27;0.50;;;0.00;;
72373;SDS011;60349;64.132;-21.820;2022-12-11T08:48:54;0.25;;;0.00;;
72373;SDS011;60349;64.132;-21.820;2022-12-11T08:51:21;0.77;;;0.00;;
72373;SDS011;60349;64.132;-21.820;2022-12-11T08:53:48;0.20;;;0.00;;
72373;SDS011;60349;64.132;-21.820;2022-12-11T08:56:15;1.42;;;0.00;;
72373;SDS011;60349;64.132;-21.820;2022-12-11T08:58:42;0.65;;;0.00;;
72373;SDS011;60349;64.132;-21.820;2022-12-11T09:01:10;1.00;;;0.00;;
72373;SDS011;60349;64.132;-21.820;2022-12-11T09:03:36;0.60;;;0.00;;
72373;SDS011;60349;64.132;-21.820;2022-12-11T09:06:07;1.38;;;0.00;;
72373;SDS011;60349;64.132;-21.820;2022-12-11T09:08:34;1.10;;;0.00;;
72373;SDS011;60349;64.132;-21.820;2022-12-11T09:11:08;0.57;;;0.00;;
72373;SDS011;60349;64.132;-21.820;2022-12-11T09:13:34;0.32;;;0.00;;
72373;SDS011;60349;64.132;-21.820;2022-12-11T09:16:02;0.70;;;0.00;;
72373;SDS011;60349;64.132;-21.820;2022-12-11T09:18:29;3.40;;;0.00;;
72373;SDS011;60349;64.132;-21.820;2022-12-11T09:21:02;0.70;;;0.00;;
72373;SDS011;60349;64.132;-21.820;2022-12-11T09:23:28;0.45;;;0.00;;
72373;SDS011;60349;64.132;-21.820;2022-12-11T09:25:54;0.35;;;0.00;;
72373;SDS011;60349;64.132;-21.820;2022-12-11T09:28:20;0.10;;;0.00;;
72373;SDS011;60349;64.132;-21.820;2022-12-11T09:30:46;1.02;;;0.00;;
72373;SDS011;60349;64.132;-21.820;2022-12-11T09:33:13;0.20;;;0.00;;
72373;SDS011;60349;64.132;-21.820;2022-12-11T09:35:39;3.03;;;0.00;;
72373;SDS011;60349;64.132;-21.820;2022-12-11T09:38:05;0.35;;;0.00;;
72373;SDS011;60349;64.132;-21.820;2022-12-11T09:40:31;0.70;;;0.00;;
72373;SDS011;60349;64.132;-21.820;2022-12-11T09:43:11;1.08;;;0.00;;
72373;SDS011;60349;64.132;-21.820;2022-12-11T09:45:39;0.43;;;0.22;;
72373;SDS011;60349;64.132;-21.820;2022-12-11T09:48:06;0.32;;;0.00;;
72373;SDS011;60349;64.132;-21.820;2022-12-11T09:50:34;1.13;;;0.08;;
72373;SDS011;60349;64.132;-21.820;2022-12-11T09:55:38;0.82;;;0.00;;
72373;SDS011;60349;64.132;-21.820;2022-12-11T09:58:12;0.47;;;0.00;;
72373;SDS011;60349;64.132;-21.820;2022-12-11T10:18:45;0.13;;;0.00;;
72373;SDS011;60349;64.132;-21.820;2022-12-11T10:21:12;0.15;;;0.00;;
72373;SDS011;60349;64.132;-21.820;2022-12-11T10:23:53;1.48;;;0.00;;
72373;SDS011;60349;64.132;-21.820;2022-12-11T10:26:21;0.98;;;0.00;;
72373;SDS011;60349;64.132;-21.820;2022-12-11T10:28:48;1.08;;;0.00;;
72373;SDS011;60349;64.132;-21.820;2022-12-11T10:36:09;1.00;;;0.00;;
72373;SDS011;60349;64.132;-21.820;2022-12-11T10:38:41;0.50;;;0.00;;
72373;SDS011;60349;64.132;-21.820;2022-12-11T10:43:39;0.68;;;0.00;;
72373;SDS011;60349;64.132;-21.820;2022-12-11T10:46:12;0.50;;;0.00;;
72373;SDS011;60349;64.132;-21.820;2022-12-11T10:48:47;1.02;;;0.00;;
72373;SDS011;60349;64.132;-21.820;2022-12-11T10:51:13;0.35;;;0.00;;
72373;SDS011;60349;64.132;-21.820;2022-12-11T10:53:40;2.05;;;0.10;;
72373;SDS011;60349;64.132;-21.820;2022-12-11T10:56:09;1.08;;;0.00;;
72373;SDS011;60349;64.132;-21.820;2022-12-11T10:58:37;0.20;;;0.00;;
72373;SDS011;60349;64.132;-21.820;2022-12-11T11:01:06;1.10;;;0.00;;
72373;SDS011;60349;64.132;-21.820;2022-12-11T11:03:33;0.95;;;0.35;;
72373;SDS011;60349;64.132;-21.820;2022-12-11T11:06:21;0.55;;;0.00;;
72373;SDS011;60349;64.132;-21.820;2022-12-11T11:08:47;0.30;;;0.00;;
72373;SDS011;60349;64.132;-21.820;2022-12-11T11:11:33;0.93;;;0.00;;
72373;SDS011;60349;64.132;-21.820;2022-12-11T11:16:29;0.40;;;0.00;;
72373;SDS011;60349;64.132;-21.820;2022-12-11T11:18:56;0.65;;;0.00;;
72373;SDS011;60349;64.132;-21.820;2022-12-11T11:21:23;0.40;;;0.00;;
72373;SDS011;60349;64.132;-21.820;2022-12-11T11:23:51;3.13;;;0.00;;
72373;SDS011;60349;64.132;-21.820;2022-12-11T11:26:17;0.20;;;0.00;;
72373;SDS011;60349;64.132;-21.820;2022-12-11T11:28:56;1.83;;;0.00;;
72373;SDS011;60349;64.132;-21.820;2022-12-11T11:31:32;2.05;;;0.00;;
72373;SDS011;60349;64.132;-21.820;2022-12-11T11:34:00;0.20;;;0.00;;
72373;SDS011;60349;64.132;-21.820;2022-12-11T11:36:30;0.40;;;0.00;;
72373;SDS011;60349;64.132;-21.820;2022-12-11T11:39:02;3.15;;;1.33;;
72373;SDS011;60349;64.132;-21.820;2022-12-11T11:44:14;2.28;;;0.00;;
72373;SDS011;60349;64.132;-21.820;2022-12-11T11:46:52;0.65;;;0.00;;
72373;SDS011;60349;64.132;-21.820;2022-12-11T11:59:46;0.55;;;0.00;;
72373;SDS011;60349;64.132;-21.820;2022-12-11T12:02:15;0.28;;;0.00;;
72373;SDS011;60349;64.132;-21.820;2022-12-11T12:04:42;0.68;;;0.00;;
72373;SDS011;60349;64.132;-21.820;2022-12-11T12:12:18;1.80;;;0.08;;
72373;SDS011;60349;64.132;-21.820;2022-12-11T12:25:13;0.85;;;0.00;;
72373;SDS011;60349;64.132;-21.820;2022-12-11T12:27:44;1.80;;;0.00;;
72373;SDS011;60349;64.132;-21.820;2022-12-11T12:30:12;0.88;;;0.00;;
72373;SDS011;60349;64.132;-21.820;2022-12-11T12:32:52;0.77;;;0.00;;
72373;SDS011;60349;64.132;-21.820;2022-12-11T12:37:59;0.73;;;0.00;;
72373;SDS011;60349;64.132;-21.820;2022-12-11T12:40:32;2.60;;;0.20;;
72373;SDS011;60349;64.132;-21.820;2022-12-11T12:45:44;1.40;;;0.10;;
72373;SDS011;60349;64.132;-21.820;2022-12-11T12:48:12;0.77;;;0.00;;
72373;SDS011;60349;64.132;-21.820;2022-12-11T12:50:42;1.23;;;0.13;;
72373;SDS011;60349;64.132;-21.820;2022-12-11T12:53:11;0.63;;;0.10;;
72373;SDS011;60349;64.132;-21.820;2022-12-11T12:55:38;0.98;;;0.10;;
72373;SDS011;60349;64.132;-21.820;2022-12-11T12:58:05;1.20;;;0.10;;
72373;SDS011;60349;64.132;-21.820;2022-12-11T13:00:41;0.82;;;0.00;;
72373;SDS011;60349;64.132;-21.820;2022-12-11T13:05:39;1.92;;;0.10;;
72373;SDS011;60349;64.132;-21.820;2022-12-11T13:08:05;1.00;;;0.08;;
72373;SDS011;60349;64.132;-21.820;2022-12-11T13:10:32;1.10;;;0.10;;
72373;SDS011;60349;64.132;-21.820;2022-12-11T13:12:59;1.20;;;0.13;;
72373;SDS011;60349;64.132;-21.820;2022-12-11T13:17:54;3.45;;;0.10;;
72373;SDS011;60349;64.132;-21.820;2022-12-11T13:20:22;0.55;;;0.00;;
72373;SDS011;60349;64.132;-21.820;2022-12-11T13:22:55;3.15;;;0.10;;
72373;SDS011;60349;64.132;-21.820;2022-12-11T13:31:54;1.08;;;0.00;;
72373;SDS011;60349;64.132;-21.820;2022-12-11T13:33:49;1.00;;;0.10;;
72373;SDS011;60349;64.132;-21.820;2022-12-11T13:38:46;1.05;;;0.00;;
72373;SDS011;60349;64.132;-21.820;2022-12-11T13:41:13;2.90;;;0.90;;
72373;SDS011;60349;64.132;-21.820;2022-12-11T13:43:40;3.30;;;0.10;;
72373;SDS011;60349;64.132;-21.820;2022-12-11T13:46:08;1.30;;;0.03;;
72373;SDS011;60349;64.132;-21.820;2022-12-11T13:51:17;1.08;;;0.10;;
72373;SDS011;60349;64.132;-21.820;2022-12-11T13:53:44;2.42;;;0.20;;
72373;SDS011;60349;64.132;-21.820;2022-12-11T13:56:20;2.50;;;0.50;;
72373;SDS011;60349;64.132;-21.820;2022-12-11T13:58:46;0.73;;;0.10;;
72373;SDS011;60349;64.132;-21.820;2022-12-11T14:01:14;1.00;;;0.10;;
72373;SDS011;60349;64.132;-21.820;2022-12-11T14:06:23;1.90;;;0.10;;
72373;SDS011;60349;64.132;-21.820;2022-12-11T14:08:50;1.02;;;0.10;;
72373;SDS011;60349;64.132;-21.820;2022-12-11T14:11:21;2.95;;;0.10;;
72373;SDS011;60349;64.132;-21.820;2022-12-11T14:13:48;2.28;;;0.10;;
72373;SDS011;60349;64.132;-21.820;2022-12-11T14:16:18;1.55;;;0.10;;
72373;SDS011;60349;64.132;-21.820;2022-12-11T14:18:46;1.35;;;0.00;;
72373;SDS011;60349;64.132;-21.820;2022-12-11T14:21:23;0.63;;;0.00;;
72373;SDS011;60349;64.132;-21.820;2022-12-11T14:23:54;1.83;;;0.00;;
72373;SDS011;60349;64.132;-21.820;2022-12-11T14:26:24;0.50;;;0.10;;
72373;SDS011;60349;64.132;-21.820;2022-12-11T14:28:51;0.90;;;0.10;;
72373;SDS011;60349;64.132;-21.820;2022-12-11T14:31:19;1.60;;;0.10;;
72373;SDS011;60349;64.132;-21.820;2022-12-11T14:33:47;1.38;;;0.10;;
72373;SDS011;60349;64.132;-21.820;2022-12-11T14:36:14;2.13;;;0.10;;
72373;SDS011;60349;64.132;-21.820;2022-12-11T14:38:55;1.23;;;0.10;;
72373;SDS011;60349;64.132;-21.820;2022-12-11T14:41:23;1.90;;;0.00;;
72373;SDS011;60349;64.132;-21.820;2022-12-11T14:43:59;2.22;;;0.10;;
72373;SDS011;60349;64.132;-21.820;2022-12-11T14:46:31;2.05;;;0.25;;
72373;SDS011;60349;64.132;-21.820;2022-12-11T14:49:05;2.88;;;0.10;;
72373;SDS011;60349;64.132;-21.820;2022-12-11T14:51:34;3.58;;;0.22;;
72373;SDS011;60349;64.132;-21.820;2022-12-11T14:54:00;2.22;;;0.10;;
72373;SDS011;60349;64.132;-21.820;2022-12-11T14:56:27;1.30;;;0.10;;
72373;SDS011;60349;64.132;-21.820;2022-12-11T14:58:58;6.10;;;0.30;;
72373;SDS011;60349;64.132;-21.820;2022-12-11T15:01:26;1.08;;;0.32;;
72373;SDS011;60349;64.132;-21.820;2022-12-11T15:06:29;1.05;;;0.20;;
72373;SDS011;60349;64.132;-21.820;2022-12-11T15:08:55;3.47;;;0.10;;
72373;SDS011;60349;64.132;-21.820;2022-12-11T15:11:22;2.63;;;0.08;;
72373;SDS011;60349;64.132;-21.820;2022-12-11T15:16:14;4.57;;;0.30;;
72373;SDS011;60349;64.132;-21.820;2022-12-11T15:18:41;4.47;;;0.57;;
72373;SDS011;60349;64.132;-21.820;2022-12-11T15:21:08;7.57;;;1.80;;
72373;SDS011;60349;64.132;-21.820;2022-12-11T15:23:46;9.70;;;3.88;;
72373;SDS011;60349;64.132;-21.820;2022-12-11T15:26:13;14.13;;;4.80;;
72373;SDS011;60349;64.132;-21.820;2022-12-11T15:28:39;17.85;;;5.03;;
72373;SDS011;60349;64.132;-21.820;2022-12-11T15:31:07;13.20;;;3.90;;
72373;SDS011;60349;64.132;-21.820;2022-12-11T15:33:46;15.20;;;4.97;;
72373;SDS011;60349;64.132;-21.820;2022-12-11T15:38:48;18.13;;;4.35;;
72373;SDS011;60349;64.132;-21.820;2022-12-11T15:41:16;16.42;;;5.03;;
72373;SDS011;60349;64.132;-21.820;2022-12-11T15:43:45;14.45;;;5.50;;
72373;SDS011;60349;64.132;-21.820;2022-12-11T15:46:12;11.50;;;4.97;;
72373;SDS011;60349;64.132;-21.820;2022-12-11T15:48:38;11.10;;;4.60;;
72373;SDS011;60349;64.132;-21.820;2022-12-11T15:51:04;12.02;;;4.50;;
72373;SDS011;60349;64.132;-21.820;2022-12-11T15:53:30;11.63;;;3.55;;
72373;SDS011;60349;64.132;-21.820;2022-12-11T15:55:57;8.95;;;3.83;;
72373;SDS011;60349;64.132;-21.820;2022-12-11T15:58:24;13.80;;;5.25;;
72373;SDS011;60349;64.132;-21.820;2022-12-11T16:00:51;13.70;;;4.28;;
72373;SDS011;60349;64.132;-21.820;2022-12-11T16:03:18;15.30;;;6.60;;
72373;SDS011;60349;64.132;-21.820;2022-12-11T16:05:44;24.27;;;8.93;;
72373;SDS011;60349;64.132;-21.820;2022-12-11T16:08:15;29.38;;;11.77;;
72373;SDS011;60349;64.132;-21.820;2022-12-11T16:10:42;38.92;;;15.88;;
72373;SDS011;60349;64.132;-21.820;2022-12-11T16:13:09;45.13;;;18.58;;
72373;SDS011;60349;64.132;-21.820;2022-12-11T16:15:36;57.13;;;23.88;;
72373;SDS011;60349;64.132;-21.820;2022-12-11T16:18:06;56.42;;;23.77;;
72373;SDS011;60349;64.132;-21.820;2022-12-11T16:20:34;55.88;;;24.27;;